createdAt,value
2022-08-05T00:01:48.792Z,25.28
2022-08-05T00:06:02.523Z,25.21
2022-08-05T00:08:53.408Z,25.14
2022-08-05T00:12:15.365Z,25.05
2022-08-05T00:15:55.476Z,24.96
2022-08-05T00:19:18.154Z,24.87
2022-08-05T00:22:47.185Z,24.80
2022-08-05T00:26:22.382Z,24.75
2022-08-05T00:29:44.116Z,24.74
2022-08-05T00:33:07.452Z,24.67
2022-08-05T00:37:09.721Z,24.60
2022-08-05T00:40:30.939Z,24.56
2022-08-05T00:43:52.670Z,24.53
2022-08-05T00:47:16.365Z,24.47
2022-08-05T00:50:41.229Z,24.40
2022-08-05T00:54:04.294Z,24.35
2022-08-05T00:57:38.335Z,24.31
2022-08-05T01:01:09.069Z,24.25
2022-08-05T01:04:31.702Z,24.20
2022-08-05T01:08:40.890Z,24.13
2022-08-05T01:11:39.003Z,24.07
2022-08-05T01:15:06.177Z,24.01
2022-08-05T01:18:56.351Z,23.97
2022-08-05T01:22:46.983Z,23.92
2022-08-05T01:26:26.368Z,23.83
2022-08-05T01:29:53.657Z,23.77
2022-08-05T01:33:19.700Z,23.68
2022-08-05T01:36:47.142Z,23.59
2022-08-05T01:40:12.444Z,23.52
2022-08-05T01:43:35.207Z,23.50
2022-08-05T01:46:59.949Z,23.52
2022-08-05T01:50:28.823Z,23.55
2022-08-05T01:53:56.960Z,23.57
2022-08-05T01:58:12.771Z,23.59
2022-08-05T02:01:09.900Z,23.63
2022-08-05T02:04:36.197Z,23.60
2022-08-05T02:08:01.424Z,23.59
2022-08-05T02:11:33.547Z,23.55
2022-08-05T02:15:05.723Z,23.52
2022-08-05T02:18:42.041Z,23.51
2022-08-05T02:22:25.929Z,23.41
2022-08-05T02:25:52.244Z,23.36
2022-08-05T02:29:21.459Z,23.33
2022-08-05T02:32:44.396Z,23.27
2022-08-05T02:36:10.060Z,23.18
2022-08-05T02:39:41.283Z,23.11
2022-08-05T02:43:03.506Z,23.03
2022-08-05T02:46:30.249Z,22.96
2022-08-05T02:49:52.796Z,22.91
2022-08-05T02:53:19.473Z,22.88
2022-08-05T02:56:46.116Z,22.86
2022-08-05T03:00:09.732Z,22.86
2022-08-05T03:03:34.216Z,22.77
2022-08-05T03:07:48.492Z,22.75
2022-08-05T03:11:01.127Z,22.68
2022-08-05T03:14:46.100Z,22.65
2022-08-05T03:18:10.046Z,22.64
2022-08-05T03:21:33.067Z,22.60
2022-08-05T03:25:31.973Z,22.53
2022-08-05T03:28:45.166Z,22.48
2022-08-05T03:32:09.738Z,22.46
2022-08-05T03:35:34.081Z,22.43
2022-08-05T03:39:08.139Z,22.38
2022-08-05T03:42:52.253Z,22.33
2022-08-05T03:46:15.482Z,22.30
2022-08-05T03:49:51.911Z,22.30
2022-08-05T03:55:54.206Z,22.32
2022-08-05T03:57:02.121Z,22.35
2022-08-05T04:00:39.667Z,22.37
2022-08-05T04:04:10.276Z,22.40
2022-08-05T04:07:46.738Z,22.45
2022-08-05T04:11:18.452Z,22.50
2022-08-05T04:14:43.566Z,22.53
2022-08-05T04:18:09.395Z,22.58
2022-08-05T04:22:05.313Z,22.62
2022-08-05T04:25:15.411Z,22.67
2022-08-05T04:28:37.223Z,22.68
2022-08-05T04:32:13.157Z,22.73
2022-08-05T04:36:15.913Z,22.75
2022-08-05T04:39:19.715Z,22.79
2022-08-05T04:42:42.783Z,22.80
2022-08-05T04:46:08.387Z,22.84
2022-08-05T04:50:00.862Z,22.84
2022-08-05T04:53:13.015Z,22.88
2022-08-05T04:56:37.259Z,22.89
2022-08-05T05:00:00.842Z,22.91
2022-08-05T05:03:22.888Z,22.91
2022-08-05T05:06:51.966Z,22.94
2022-08-05T05:10:19.204Z,23.00
2022-08-05T05:13:43.186Z,23.08
2022-08-05T05:17:07.364Z,23.18
2022-08-05T05:20:31.395Z,23.25
2022-08-05T05:24:04.139Z,23.29
2022-08-05T05:27:45.741Z,23.36
2022-08-05T05:31:10.293Z,23.46
2022-08-05T05:34:33.338Z,23.54
2022-08-05T05:38:00.000Z,23.60
2022-08-05T05:41:23.019Z,23.65
2022-08-05T05:44:45.941Z,23.73
2022-08-05T05:48:08.789Z,23.79
2022-08-05T05:51:49.711Z,23.86
2022-08-05T05:55:14.826Z,23.94
2022-08-05T05:58:36.385Z,23.99
2022-08-05T06:02:01.815Z,24.03
2022-08-05T06:05:24.518Z,24.06
2022-08-05T06:08:49.555Z,24.14
2022-08-05T06:12:12.240Z,24.17
2022-08-05T06:16:29.590Z,24.18
2022-08-05T06:19:26.046Z,24.18
2022-08-05T06:22:55.827Z,24.20
2022-08-05T06:26:24.054Z,24.26
2022-08-05T06:30:04.200Z,24.31
2022-08-05T06:33:33.448Z,24.34
2022-08-05T06:37:11.425Z,24.36
2022-08-05T06:40:34.541Z,24.41
2022-08-05T06:44:00.730Z,24.45
2022-08-05T06:47:42.156Z,24.49
2022-08-05T06:51:07.320Z,24.52
2022-08-05T06:54:31.416Z,24.55
2022-08-05T06:58:02.824Z,24.60
2022-08-05T07:01:35.677Z,24.64
2022-08-05T07:04:58.527Z,24.67
2022-08-05T07:08:20.853Z,24.70
2022-08-05T07:11:51.590Z,24.75
2022-08-05T07:15:34.405Z,24.80
2022-08-05T07:19:16.115Z,24.89
2022-08-05T07:22:55.562Z,24.95
2022-08-05T07:26:22.558Z,25.06
2022-08-05T07:30:23.806Z,25.16
2022-08-05T07:33:36.802Z,25.20
2022-08-05T07:37:00.992Z,25.21
2022-08-05T07:40:31.361Z,25.23
2022-08-05T07:43:56.684Z,25.30
2022-08-05T07:47:18.513Z,25.40
2022-08-05T07:50:47.556Z,25.52
2022-08-05T07:54:12.749Z,25.55
2022-08-05T07:57:42.049Z,25.60
2022-08-05T08:01:17.317Z,25.67
2022-08-05T08:04:44.995Z,25.74
2022-08-05T08:08:07.162Z,25.77
2022-08-05T08:11:47.869Z,25.80
2022-08-05T08:15:17.328Z,25.90
2022-08-05T08:18:39.586Z,25.93
2022-08-05T08:22:01.347Z,25.97
2022-08-05T08:25:26.409Z,26.00
2022-08-05T08:28:55.155Z,26.06
2022-08-05T08:32:21.775Z,26.10
2022-08-05T08:35:53.860Z,26.11
2022-08-05T08:39:32.182Z,26.14
2022-08-05T08:45:19.456Z,26.18
2022-08-05T08:46:45.503Z,26.19
2022-08-05T08:50:23.158Z,26.18
2022-08-05T08:53:51.155Z,26.20
2022-08-05T08:57:13.817Z,26.22
2022-08-05T09:00:36.043Z,26.24
2022-08-05T09:04:00.954Z,26.23
2022-08-05T09:07:28.925Z,26.23
2022-08-05T09:11:01.254Z,26.28
2022-08-05T09:14:56.989Z,26.29
2022-08-05T09:18:08.660Z,26.26
2022-08-05T09:22:22.226Z,26.28
2022-08-05T09:25:24.061Z,26.18
2022-08-05T09:29:05.047Z,26.14
2022-08-05T09:32:40.632Z,26.01
2022-08-05T09:36:16.262Z,25.95
2022-08-05T09:39:45.840Z,25.91
2022-08-05T09:43:28.118Z,25.87
2022-08-05T09:47:15.787Z,25.83
2022-08-05T09:50:44.532Z,25.77
2022-08-05T09:54:09.412Z,25.72
2022-08-05T09:57:39.698Z,25.69
2022-08-05T10:01:15.050Z,25.65
2022-08-05T10:04:45.224Z,25.64
2022-08-05T10:08:34.947Z,25.63
2022-08-05T10:11:50.870Z,25.65
2022-08-05T10:15:20.961Z,25.68
2022-08-05T10:18:43.502Z,25.67
2022-08-05T10:22:15.651Z,25.66
2022-08-05T10:25:51.727Z,25.66
2022-08-05T10:29:13.399Z,25.65
2022-08-05T10:32:59.574Z,25.65
2022-08-05T10:36:26.286Z,25.67
2022-08-05T10:40:04.037Z,25.70
2022-08-05T10:43:44.121Z,25.71
2022-08-05T10:47:26.844Z,25.70
2022-08-05T10:51:03.352Z,25.65
2022-08-05T10:54:46.988Z,25.60
2022-08-05T10:58:20.589Z,25.56
2022-08-05T11:01:55.114Z,25.53
2022-08-05T11:05:29.267Z,25.50
2022-08-05T11:09:16.702Z,25.46
2022-08-05T11:12:50.898Z,25.47
2022-08-05T11:16:47.824Z,25.48
2022-08-05T11:20:10.755Z,25.48
2022-08-05T11:24:05.689Z,25.45
2022-08-05T11:27:45.756Z,25.39
2022-08-05T11:31:57.537Z,25.34
2022-08-05T11:35:10.495Z,25.36
2022-08-05T11:38:57.558Z,25.41
2022-08-05T11:42:28.071Z,25.44
2022-08-05T11:46:15.259Z,25.47
2022-08-05T11:49:33.759Z,25.51
2022-08-05T11:52:58.212Z,25.54
2022-08-05T11:56:25.348Z,25.58
2022-08-05T12:00:02.106Z,25.62
2022-08-05T12:03:55.598Z,25.67
2022-08-05T12:08:07.348Z,25.71
2022-08-05T12:11:05.955Z,25.75
2022-08-05T12:14:37.329Z,25.74
2022-08-05T12:18:03.651Z,25.79
2022-08-05T12:21:39.142Z,25.82
2022-08-05T12:25:01.639Z,25.86
2022-08-05T12:28:35.139Z,25.92
2022-08-05T12:32:02.150Z,25.96
2022-08-05T12:35:39.374Z,26.01
2022-08-05T12:39:05.504Z,26.05
2022-08-05T12:42:31.098Z,26.13
2022-08-05T12:45:54.664Z,26.18
2022-08-05T12:49:18.963Z,26.26
2022-08-05T12:52:42.467Z,26.36
2022-08-05T12:56:34.526Z,26.39
2022-08-05T13:01:57.535Z,26.47
2022-08-05T13:03:42.871Z,26.48
2022-08-05T13:07:10.372Z,26.50
2022-08-05T13:10:50.256Z,26.57
2022-08-05T13:14:25.023Z,26.68
2022-08-05T13:17:59.349Z,26.84
2022-08-05T13:21:21.623Z,26.90
2022-08-05T13:24:57.358Z,26.91
2022-08-05T13:28:21.816Z,26.89
2022-08-05T13:32:04.977Z,26.92
2022-08-05T13:35:31.339Z,26.95
2022-08-05T13:39:24.428Z,26.99
2022-08-05T13:42:55.741Z,27.06
2022-08-05T13:46:35.832Z,27.07
2022-08-05T13:50:04.557Z,27.10
2022-08-05T13:53:28.043Z,27.15
2022-08-05T13:56:53.587Z,27.16
2022-08-05T14:00:15.723Z,27.17
2022-08-05T14:03:42.143Z,27.18
2022-08-05T14:07:26.515Z,27.22
2022-08-05T14:10:59.834Z,27.22
2022-08-05T14:14:33.535Z,27.26
2022-08-05T14:17:57.792Z,27.25
2022-08-05T14:22:07.084Z,27.28
2022-08-05T14:25:06.460Z,27.27
2022-08-05T14:28:52.350Z,27.20
2022-08-05T14:32:26.587Z,27.15
2022-08-05T14:35:50.367Z,27.12
2022-08-05T14:39:13.603Z,27.14
2022-08-05T14:42:46.918Z,27.21
2022-08-05T14:46:11.071Z,27.25
2022-08-05T14:49:59.469Z,27.28
2022-08-05T14:53:15.289Z,27.27
2022-08-05T14:56:38.108Z,27.28
2022-08-05T15:00:08.646Z,27.25
2022-08-05T15:03:38.940Z,27.15
2022-08-05T15:07:01.465Z,27.13
2022-08-05T15:10:28.804Z,27.07
2022-08-05T15:13:50.749Z,26.93
2022-08-05T15:17:44.296Z,26.88
2022-08-05T15:20:55.419Z,26.84
2022-08-05T15:24:17.602Z,26.77
2022-08-05T15:27:51.911Z,26.69
2022-08-05T15:31:14.707Z,26.64
2022-08-05T15:34:32.527Z,26.61
2022-08-05T15:38:34.273Z,26.56
2022-08-05T15:41:55.924Z,26.49
2022-08-05T15:45:18.982Z,26.39
2022-08-05T15:49:09.920Z,26.30
2022-08-05T15:52:53.410Z,26.20
2022-08-05T15:56:16.622Z,26.08
2022-08-05T15:59:40.177Z,26.01
2022-08-05T16:03:04.915Z,26.00
2022-08-05T16:06:27.279Z,25.99
2022-08-05T16:09:51.226Z,25.94
2022-08-05T16:13:23.715Z,25.88
2022-08-05T16:16:46.930Z,25.83
2022-08-05T16:20:12.173Z,25.80
2022-08-05T16:23:53.667Z,25.78
2022-08-05T16:27:17.070Z,25.75
2022-08-05T16:30:39.477Z,25.74
2022-08-05T16:34:03.157Z,25.75
2022-08-05T16:38:10.576Z,25.77
2022-08-05T16:42:12.344Z,25.79
2022-08-05T16:44:54.249Z,25.73
2022-08-05T16:48:25.191Z,25.64
2022-08-05T16:51:50.295Z,25.49
2022-08-05T16:55:13.320Z,25.44
2022-08-05T16:58:35.164Z,25.35
2022-08-05T17:01:58.069Z,25.26
2022-08-05T17:05:21.650Z,25.15
2022-08-05T17:08:53.265Z,25.06
2022-08-05T17:12:16.222Z,24.93
2022-08-05T17:15:49.075Z,24.69
2022-08-05T17:19:16.455Z,24.46
2022-08-05T17:22:38.881Z,24.33
2022-08-05T17:26:00.750Z,24.19
2022-08-05T17:29:33.111Z,24.03
2022-08-05T17:32:56.499Z,23.89
2022-08-05T17:36:33.840Z,23.73
2022-08-05T17:39:57.495Z,23.54
2022-08-05T17:43:47.025Z,23.40
2022-08-05T17:47:03.402Z,23.20
2022-08-05T17:50:28.020Z,23.08
2022-08-05T17:53:54.656Z,22.96
2022-08-05T17:57:16.725Z,22.79
2022-08-05T18:00:44.694Z,22.52
2022-08-05T18:04:11.915Z,22.22
2022-08-05T18:07:41.748Z,22.03
2022-08-05T18:11:06.018Z,21.88
2022-08-05T18:14:28.678Z,21.86
2022-08-05T18:18:00.830Z,21.84
2022-08-05T18:21:26.481Z,21.81
2022-08-05T18:24:50.605Z,21.75
2022-08-05T18:28:16.627Z,21.65
2022-08-05T18:32:12.983Z,21.50
2022-08-05T18:35:59.899Z,21.38
2022-08-05T18:39:42.575Z,21.30
2022-08-05T18:42:59.601Z,21.31
2022-08-05T18:46:22.847Z,21.30
2022-08-05T18:50:05.029Z,21.33
2022-08-05T18:53:34.694Z,21.34
2022-08-05T18:57:05.141Z,21.29
2022-08-05T19:00:31.662Z,21.23
2022-08-05T19:03:58.158Z,21.11
2022-08-05T19:07:20.421Z,21.05
2022-08-05T19:10:42.394Z,21.00
2022-08-05T19:14:20.045Z,20.95
2022-08-05T19:18:08.532Z,20.90
2022-08-05T19:21:34.137Z,20.87
2022-08-05T19:25:00.663Z,20.77
2022-08-05T19:28:24.467Z,20.69
2022-08-05T19:31:51.357Z,20.61
2022-08-05T19:35:13.256Z,20.55
2022-08-05T19:38:41.007Z,20.50
2022-08-05T19:42:07.333Z,20.45
2022-08-05T19:45:33.296Z,20.40
2022-08-05T19:49:00.831Z,20.37
2022-08-05T19:52:31.814Z,20.36
2022-08-05T19:56:14.354Z,20.36
2022-08-05T19:59:51.151Z,20.32
2022-08-05T20:03:21.570Z,20.28
2022-08-05T20:06:46.003Z,20.23
2022-08-05T20:10:13.427Z,20.23
2022-08-05T20:13:58.218Z,20.23
2022-08-05T20:17:23.447Z,20.22
2022-08-05T20:20:46.114Z,20.21
2022-08-05T20:24:11.464Z,20.20
2022-08-05T20:27:41.636Z,20.21
2022-08-05T20:31:05.631Z,20.21
2022-08-05T20:34:28.513Z,20.19
2022-08-05T20:38:06.770Z,20.18
2022-08-05T20:41:44.061Z,20.13
2022-08-05T20:45:07.974Z,20.09
2022-08-05T20:48:31.587Z,20.05
2022-08-05T20:51:54.044Z,19.95
2022-08-05T20:55:56.693Z,19.87
2022-08-05T20:58:59.833Z,19.83
2022-08-05T21:02:26.774Z,19.79
2022-08-05T21:05:55.647Z,19.82
2022-08-05T21:09:20.964Z,19.86
2022-08-05T21:12:57.722Z,19.84
2022-08-05T21:16:29.525Z,19.75
2022-08-05T21:19:52.153Z,19.71
2022-08-05T21:23:15.317Z,19.67
2022-08-05T21:26:38.383Z,19.59
2022-08-05T21:30:03.444Z,19.57
2022-08-05T21:33:25.426Z,19.55
2022-08-05T21:37:01.976Z,19.52
2022-08-05T21:40:26.946Z,19.55
2022-08-05T21:44:01.822Z,19.55
2022-08-05T21:47:55.089Z,19.51
2022-08-05T21:52:16.291Z,19.48
2022-08-05T21:54:51.974Z,19.47
2022-08-05T21:58:19.243Z,19.48
2022-08-05T22:01:41.231Z,19.48
2022-08-05T22:05:04.826Z,19.42
2022-08-05T22:08:27.170Z,19.39
2022-08-05T22:11:48.998Z,19.33
2022-08-05T22:15:16.498Z,19.28
2022-08-05T22:18:39.034Z,19.23
2022-08-05T22:22:01.323Z,19.17
2022-08-05T22:26:10.130Z,19.10
2022-08-05T22:29:26.859Z,19.03
2022-08-05T22:32:55.928Z,18.98
2022-08-05T22:36:24.133Z,18.94
2022-08-05T22:39:50.463Z,18.92
2022-08-05T22:43:12.206Z,18.87
2022-08-05T22:46:39.834Z,18.87
2022-08-05T22:50:20.672Z,18.85
2022-08-05T22:53:49.916Z,18.82
2022-08-05T22:57:11.767Z,18.79
2022-08-05T23:00:33.646Z,18.73
2022-08-05T23:03:58.811Z,18.70
2022-08-05T23:07:22.595Z,18.68
2022-08-05T23:10:44.188Z,18.66
2022-08-05T23:14:06.140Z,18.65
2022-08-05T23:17:34.529Z,18.63
2022-08-05T23:20:59.611Z,18.63
2022-08-05T23:24:23.569Z,18.61
2022-08-05T23:28:00.177Z,18.55
2022-08-05T23:31:22.469Z,18.50
2022-08-05T23:34:44.518Z,18.45
2022-08-05T23:38:06.444Z,18.43
2022-08-05T23:41:37.355Z,18.36
2022-08-05T23:45:02.829Z,18.25
2022-08-05T23:48:25.297Z,18.16
2022-08-05T23:52:05.730Z,18.06
2022-08-05T23:55:31.051Z,17.96
2022-08-05T23:58:54.570Z,17.86
